Terminal Aerodrome Forecast
Issued by NWS Cleveland, OH

Home | Current Version | Previous Version | Text Only | Print | Product List | Glossary On
Versions: 1 2 3 4 5 6 7 8 9 10 11 12 13 14 15 16 17 18 19 20 21 22 23 24 25 26 27 28
000
FTUS41 KCLE 210539
TAFCAK
TAF
KCAK 210539Z 2106/2206 17007KT 6SM -RA OVC040
     FM211200 18005KT P6SM VCSH OVC025
     FM211400 18005KT P6SM VCSH BKN015
     FM211700 22004KT P6SM BKN015
     FM212200 31006KT P6SM BKN025=

USA.gov is the U.S. government's official web portal to all federal, state and local government web resources and services.